createdAt,value
2022-12-09T00:01:19.910Z,60.33
2022-12-09T00:03:47.594Z,61.90
2022-12-09T00:06:23.864Z,55.70
2022-12-09T00:08:51.663Z,62.85
2022-12-09T00:11:19.976Z,60.92
2022-12-09T00:13:51.455Z,57.67
2022-12-09T00:16:19.153Z,60.15
2022-12-09T00:18:45.992Z,60.53
2022-12-09T00:21:12.870Z,60.88
2022-12-09T00:23:39.868Z,60.35
2022-12-09T00:26:06.908Z,63.72
2022-12-09T00:28:33.949Z,56.08
2022-12-09T00:31:02.398Z,61.80
2022-12-09T00:33:33.595Z,58.83
2022-12-09T00:36:12.708Z,56.25
2022-12-09T00:38:39.359Z,59.67
2022-12-09T00:41:06.466Z,57.88
2022-12-09T00:43:34.227Z,57.28
2022-12-09T00:46:02.121Z,55.90
2022-12-09T00:48:29.355Z,54.80
2022-12-09T00:50:56.467Z,54.70
2022-12-09T00:53:23.518Z,54.13
2022-12-09T00:55:50.496Z,61.40
2022-12-09T00:58:17.202Z,56.33
2022-12-09T01:00:56.210Z,62.22
2022-12-09T01:03:24.197Z,55.13
2022-12-09T01:05:51.112Z,57.85
2022-12-09T01:08:18.081Z,60.03
2022-12-09T01:10:45.496Z,62.40
2022-12-09T01:13:14.446Z,63.40
2022-12-09T01:15:41.666Z,60.22
2022-12-09T01:18:08.544Z,67.20
2022-12-09T01:20:35.819Z,66.43
2022-12-09T01:23:14.932Z,66.82
2022-12-09T01:25:41.659Z,62.30
2022-12-09T01:28:10.555Z,61.58
2022-12-09T01:30:37.185Z,65.35
2022-12-09T01:33:05.394Z,63.83
2022-12-09T01:35:32.207Z,58.88
2022-12-09T01:37:58.828Z,63.13
2022-12-09T01:40:25.751Z,66.05
2022-12-09T01:42:53.160Z,66.50
2022-12-09T01:45:19.955Z,57.35
2022-12-09T01:47:56.647Z,64.43
2022-12-09T01:50:26.572Z,65.72
2022-12-09T01:53:31.778Z,72.07
2022-12-09T01:56:03.288Z,71.60
2022-12-09T01:58:30.379Z,66.30
2022-12-09T02:00:57.142Z,71.72
2022-12-09T02:03:24.120Z,76.03
2022-12-09T02:05:51.792Z,77.78
2022-12-09T02:08:19.840Z,80.13
2022-12-09T02:11:23.603Z,80.65
2022-12-09T02:14:10.757Z,87.00
2022-12-09T02:17:00.788Z,80.63
2022-12-09T02:19:43.124Z,87.93
2022-12-09T02:22:16.265Z,84.38
2022-12-09T02:24:59.066Z,85.60
2022-12-09T02:27:53.418Z,94.32
2022-12-09T02:30:29.079Z,86.78
2022-12-09T02:33:05.268Z,90.57
2022-12-09T02:35:45.744Z,99.68
2022-12-09T02:38:20.321Z,116.65
2022-12-09T02:41:10.151Z,97.78
2022-12-09T02:43:50.137Z,92.05
2022-12-09T02:46:23.892Z,114.40
2022-12-09T02:48:56.701Z,95.75
2022-12-09T02:51:26.372Z,106.38
2022-12-09T02:56:24.711Z,95.75
2022-12-09T02:58:51.621Z,97.80
2022-12-09T03:01:45.653Z,118.38
2022-12-09T03:04:18.872Z,207.50
2022-12-09T03:06:52.292Z,172.13
2022-12-09T03:09:36.619Z,150.55
2022-12-09T03:12:08.903Z,95.43
2022-12-09T03:15:02.671Z,114.15
2022-12-09T03:17:36.996Z,100.90
2022-12-09T03:20:08.909Z,311.10
2022-12-09T03:22:37.514Z,160.15
2022-12-09T03:25:24.749Z,316.05
2022-12-09T03:28:02.105Z,173.20
2022-12-09T03:30:33.899Z,113.90
2022-12-09T03:33:01.613Z,101.38
2022-12-09T03:35:42.550Z,199.38
2022-12-09T03:38:14.242Z,125.50
2022-12-09T03:40:43.451Z,104.97
2022-12-09T03:43:16.299Z,174.30
2022-12-09T03:45:43.746Z,164.48
2022-12-09T03:48:11.559Z,152.23
2022-12-09T03:50:49.486Z,150.52
2022-12-09T03:53:23.913Z,100.82
2022-12-09T03:56:15.361Z,98.60
2022-12-09T03:58:45.225Z,105.88
2022-12-09T04:01:12.947Z,93.95
2022-12-09T04:03:39.909Z,99.75
2022-12-09T04:06:06.926Z,103.68
2022-12-09T04:08:33.804Z,99.07
2022-12-09T04:11:00.900Z,143.25
2022-12-09T04:13:27.599Z,280.83
2022-12-09T04:15:54.262Z,97.47
2022-12-09T04:18:20.917Z,107.25
2022-12-09T04:20:47.707Z,105.80
2022-12-09T04:23:14.556Z,98.82
2022-12-09T04:25:41.188Z,97.28
2022-12-09T04:28:08.167Z,101.20
2022-12-09T04:30:34.986Z,108.43
2022-12-09T04:33:02.326Z,121.55
2022-12-09T04:35:30.311Z,122.30
2022-12-09T04:37:57.223Z,119.30
2022-12-09T04:40:24.815Z,131.40
2022-12-09T04:42:51.939Z,131.35
2022-12-09T04:45:18.719Z,140.07
2022-12-09T04:47:45.712Z,129.18
2022-12-09T04:50:13.536Z,122.93
2022-12-09T04:52:40.915Z,123.97
2022-12-09T04:55:08.301Z,117.72
2022-12-09T04:57:35.322Z,128.00
2022-12-09T05:00:05.468Z,130.45
2022-12-09T05:02:32.858Z,133.52
2022-12-09T05:05:01.928Z,139.50
2022-12-09T05:07:31.233Z,168.80
2022-12-09T05:09:58.864Z,196.77
2022-12-09T05:12:25.860Z,138.77
2022-12-09T05:14:52.886Z,129.10
2022-12-09T05:17:19.654Z,144.82
2022-12-09T05:19:46.866Z,133.88
2022-12-09T05:22:17.312Z,135.07
2022-12-09T05:24:45.114Z,127.47
2022-12-09T05:27:12.076Z,132.27
2022-12-09T05:29:39.070Z,130.02
2022-12-09T05:32:06.447Z,128.77
2022-12-09T05:34:33.659Z,120.72
2022-12-09T05:37:03.659Z,135.70
2022-12-09T05:39:30.407Z,132.65
2022-12-09T05:41:57.101Z,113.47
2022-12-09T05:44:25.048Z,139.77
2022-12-09T05:46:52.108Z,129.43
2022-12-09T05:49:18.895Z,127.85
2022-12-09T05:51:46.063Z,124.43
2022-12-09T05:54:15.918Z,118.07
2022-12-09T05:56:47.857Z,126.00
2022-12-09T05:59:15.709Z,126.88
2022-12-09T06:01:43.312Z,123.20
2022-12-09T06:04:10.327Z,118.20
2022-12-09T06:06:38.398Z,111.43
2022-12-09T06:09:11.500Z,113.07
2022-12-09T06:11:40.218Z,122.18
2022-12-09T06:14:08.935Z,102.97
2022-12-09T06:16:36.569Z,105.10
2022-12-09T06:19:04.709Z,114.53
2022-12-09T06:21:31.853Z,114.68
2022-12-09T06:23:59.260Z,111.05
2022-12-09T06:26:29.926Z,111.38
2022-12-09T06:29:15.209Z,115.50
2022-12-09T06:31:42.247Z,111.95
2022-12-09T06:34:09.086Z,114.05
2022-12-09T06:37:09.942Z,115.32
2022-12-09T06:39:39.091Z,109.20
2022-12-09T06:42:13.272Z,106.15
2022-12-09T06:44:40.395Z,104.95
2022-12-09T06:47:08.465Z,105.97
2022-12-09T06:49:35.443Z,98.93
2022-12-09T06:52:02.504Z,101.78
2022-12-09T06:54:29.654Z,106.97
2022-12-09T06:56:56.335Z,116.15
2022-12-09T06:59:23.562Z,114.28
2022-12-09T07:01:50.867Z,120.50
2022-12-09T07:04:21.510Z,118.07
2022-12-09T07:06:48.896Z,132.00
2022-12-09T07:09:19.928Z,120.28
2022-12-09T07:11:48.095Z,118.65
2022-12-09T07:14:16.876Z,122.95
2022-12-09T07:16:43.761Z,139.77
2022-12-09T07:19:24.273Z,135.82
2022-12-09T07:21:52.328Z,142.82
2022-12-09T07:24:20.617Z,136.15
2022-12-09T07:26:50.274Z,139.88
2022-12-09T07:29:23.007Z,145.95
2022-12-09T07:31:49.945Z,141.65
2022-12-09T07:34:17.623Z,166.85
2022-12-09T07:36:47.559Z,144.43
2022-12-09T07:39:17.812Z,201.98
2022-12-09T07:41:45.463Z,181.20
2022-12-09T07:47:18.879Z,146.90
2022-12-09T07:49:46.030Z,219.63
2022-12-09T07:52:13.488Z,258.90
2022-12-09T07:54:40.636Z,185.48
2022-12-09T07:57:10.043Z,156.77
2022-12-09T07:59:36.724Z,176.93
2022-12-09T08:02:06.488Z,203.57
2022-12-09T08:04:35.540Z,154.38
2022-12-09T08:07:13.982Z,171.25
2022-12-09T08:09:41.324Z,150.23
2022-12-09T08:12:08.499Z,137.10
2022-12-09T08:14:35.384Z,138.77
2022-12-09T08:17:02.112Z,250.90
2022-12-09T08:19:32.390Z,181.13
2022-12-09T08:22:00.365Z,132.57
2022-12-09T08:24:27.415Z,141.70
2022-12-09T08:26:54.253Z,168.45
2022-12-09T08:29:21.530Z,147.82
2022-12-09T08:31:49.074Z,174.57
2022-12-09T08:34:16.126Z,128.88
2022-12-09T08:36:43.690Z,135.75
2022-12-09T08:39:13.207Z,134.32
2022-12-09T08:41:40.455Z,145.52
2022-12-09T08:44:14.468Z,131.90
2022-12-09T08:46:47.339Z,257.58
2022-12-09T08:49:18.915Z,138.00
2022-12-09T08:51:48.297Z,134.05
2022-12-09T08:54:18.981Z,135.40
2022-12-09T08:56:53.005Z,157.50
2022-12-09T08:59:20.124Z,166.65
2022-12-09T09:01:47.699Z,165.02
2022-12-09T09:04:18.265Z,162.73
2022-12-09T09:07:05.864Z,256.85
2022-12-09T09:09:38.150Z,186.43
2022-12-09T09:12:06.086Z,164.88
2022-12-09T09:14:33.495Z,177.90
2022-12-09T09:17:00.409Z,198.27
2022-12-09T09:19:27.927Z,192.00
2022-12-09T09:21:55.530Z,183.93
2022-12-09T09:24:25.274Z,191.73
2022-12-09T09:26:53.903Z,179.65
2022-12-09T09:29:22.943Z,201.32
2022-12-09T09:31:54.526Z,180.00
2022-12-09T09:34:22.579Z,170.30
2022-12-09T09:36:51.181Z,165.02
2022-12-09T09:39:19.342Z,152.85
2022-12-09T09:42:07.851Z,139.73
2022-12-09T09:44:42.580Z,149.32
2022-12-09T09:47:55.975Z,144.70
2022-12-09T09:50:36.128Z,124.30
2022-12-09T09:53:16.237Z,144.45
2022-12-09T09:55:49.915Z,139.10
2022-12-09T09:58:25.506Z,140.98
2022-12-09T10:01:02.709Z,141.07
2022-12-09T10:03:52.488Z,138.85
2022-12-09T10:06:41.449Z,132.00
2022-12-09T10:09:21.867Z,135.65
2022-12-09T10:12:14.356Z,142.00
2022-12-09T10:14:58.302Z,142.00
2022-12-09T10:17:35.201Z,130.48
2022-12-09T10:20:18.562Z,136.20
2022-12-09T10:23:11.073Z,118.63
2022-12-09T10:25:57.528Z,120.60
2022-12-09T10:28:36.615Z,102.82
2022-12-09T10:31:06.930Z,118.83
2022-12-09T10:33:39.163Z,124.93
2022-12-09T10:36:08.452Z,114.60
2022-12-09T10:39:00.100Z,122.88
2022-12-09T10:42:02.899Z,119.28
2022-12-09T10:44:30.342Z,119.45
2022-12-09T10:47:05.508Z,110.20
2022-12-09T10:49:34.882Z,109.22
2022-12-09T10:52:02.426Z,115.75
2022-12-09T10:54:40.047Z,117.43
2022-12-09T10:57:12.855Z,115.18
2022-12-09T10:59:42.501Z,113.78
2022-12-09T11:04:42.924Z,106.53
2022-12-09T11:07:13.438Z,110.70
2022-12-09T11:10:07.673Z,100.90
2022-12-09T11:12:41.410Z,98.78
2022-12-09T11:15:11.894Z,100.25
2022-12-09T11:17:55.863Z,100.22
2022-12-09T11:20:42.154Z,99.65
2022-12-09T11:23:11.639Z,101.25
2022-12-09T11:26:05.961Z,96.30
2022-12-09T11:28:39.508Z,99.35
2022-12-09T11:31:33.388Z,94.20
2022-12-09T11:34:13.743Z,99.55
2022-12-09T11:36:46.861Z,93.78
2022-12-09T11:39:28.078Z,92.03
2022-12-09T11:42:17.001Z,94.75
2022-12-09T11:45:02.906Z,90.78
2022-12-09T11:47:50.283Z,88.50
2022-12-09T11:50:32.276Z,81.23
2022-12-09T11:53:11.217Z,79.63
2022-12-09T11:56:03.955Z,80.27
2022-12-09T11:58:50.639Z,76.57
2022-12-09T12:01:42.699Z,72.05
2022-12-09T12:04:12.427Z,71.80
2022-12-09T12:09:49.237Z,78.50
2022-12-09T12:12:38.628Z,74.88
2022-12-09T12:15:44.188Z,77.35
2022-12-09T12:18:22.878Z,70.28
2022-12-09T12:21:15.293Z,75.90
2022-12-09T12:24:03.327Z,75.90
2022-12-09T12:26:40.699Z,69.55
2022-12-09T12:29:16.853Z,74.75
2022-12-09T12:32:36.118Z,73.28
2022-12-09T12:35:27.092Z,71.68
2022-12-09T12:38:24.770Z,77.70
2022-12-09T12:41:00.645Z,69.88
2022-12-09T12:43:48.562Z,66.95
2022-12-09T12:46:30.169Z,66.40
2022-12-09T12:49:15.748Z,71.57
2022-12-09T12:52:12.718Z,74.30
2022-12-09T12:55:12.558Z,62.13
2022-12-09T12:57:53.193Z,64.93
2022-12-09T13:00:26.256Z,67.38
2022-12-09T13:03:21.059Z,68.22
2022-12-09T13:05:51.322Z,67.78
2022-12-09T13:08:30.648Z,77.18
2022-12-09T13:11:02.216Z,76.20
2022-12-09T13:13:35.027Z,76.07
2022-12-09T13:16:27.834Z,72.13
2022-12-09T13:19:09.393Z,61.92
2022-12-09T13:21:36.651Z,61.13
2022-12-09T13:24:19.646Z,65.93
2022-12-09T13:26:52.362Z,65.72
2022-12-09T13:29:38.048Z,60.38
2022-12-09T13:32:32.462Z,58.35
2022-12-09T13:35:11.040Z,56.45
2022-12-09T13:37:37.843Z,65.68
2022-12-09T13:40:27.722Z,64.25
2022-12-09T13:43:03.994Z,61.45
2022-12-09T13:45:35.107Z,61.47
2022-12-09T13:48:10.607Z,61.85
2022-12-09T13:50:49.182Z,49.00
2022-12-09T13:53:21.851Z,49.75
2022-12-09T13:55:56.444Z,49.03
2022-12-09T13:58:53.910Z,53.70
2022-12-09T14:01:32.522Z,52.45
2022-12-09T14:04:16.676Z,50.92
2022-12-09T14:06:46.233Z,53.25
2022-12-09T14:11:50.690Z,49.25
2022-12-09T14:14:23.271Z,54.08
2022-12-09T14:16:51.821Z,45.42
2022-12-09T14:19:24.441Z,50.88
2022-12-09T14:22:18.890Z,47.90
2022-12-09T14:24:53.728Z,44.67
2022-12-09T14:27:21.052Z,41.00
2022-12-09T14:30:28.565Z,42.03
2022-12-09T14:32:57.027Z,43.90
2022-12-09T14:35:41.843Z,45.80
2022-12-09T14:38:28.794Z,46.85
2022-12-09T14:41:06.682Z,47.58
2022-12-09T14:43:39.575Z,39.15
2022-12-09T14:46:39.280Z,39.38
2022-12-09T14:49:29.386Z,37.25
2022-12-09T14:52:11.161Z,39.95
2022-12-09T14:54:48.180Z,41.72
2022-12-09T14:57:27.228Z,41.75
2022-12-09T14:59:59.510Z,40.28
2022-12-09T15:02:31.371Z,34.60
2022-12-09T15:05:00.534Z,39.55
2022-12-09T15:07:36.232Z,48.70
2022-12-09T15:10:08.523Z,47.47
2022-12-09T15:12:43.887Z,40.05
2022-12-09T15:15:10.519Z,39.47
2022-12-09T15:17:57.338Z,43.25
2022-12-09T15:20:37.619Z,58.17
2022-12-09T15:23:25.370Z,55.78
2022-12-09T15:25:54.770Z,47.38
2022-12-09T15:28:27.042Z,39.47
2022-12-09T15:30:57.144Z,39.00
2022-12-09T15:33:24.718Z,36.97
2022-12-09T15:35:51.242Z,38.03
2022-12-09T15:38:18.301Z,37.13
2022-12-09T15:44:02.432Z,35.95
2022-12-09T15:46:35.458Z,37.60
2022-12-09T15:49:04.241Z,39.78
2022-12-09T15:51:33.673Z,35.37
2022-12-09T15:54:06.852Z,36.70
2022-12-09T15:56:44.700Z,38.85
2022-12-09T15:59:42.113Z,40.03
2022-12-09T16:02:27.310Z,38.85
2022-12-09T16:04:58.310Z,46.33
2022-12-09T16:07:25.243Z,46.03
2022-12-09T16:10:16.300Z,45.00
2022-12-09T16:12:43.987Z,46.65
2022-12-09T16:15:13.435Z,43.45
2022-12-09T16:18:10.529Z,46.22
2022-12-09T16:20:41.358Z,41.90
2022-12-09T16:23:27.463Z,42.55
2022-12-09T16:26:06.315Z,45.70
2022-12-09T16:44:26.646Z,50.33
2022-12-09T16:47:16.663Z,50.58
2022-12-09T16:49:47.772Z,51.42
2022-12-09T16:52:39.685Z,58.95
2022-12-09T16:58:24.020Z,62.58
2022-12-09T17:00:50.976Z,64.63
2022-12-09T17:03:43.494Z,57.10
2022-12-09T17:06:14.876Z,64.93
2022-12-09T17:08:41.641Z,65.68
2022-12-09T17:11:08.683Z,63.85
2022-12-09T17:14:00.656Z,63.25
2022-12-09T17:16:27.476Z,70.18
2022-12-09T17:18:54.281Z,71.50
2022-12-09T17:21:21.276Z,68.55
2022-12-09T17:23:48.349Z,71.82
2022-12-09T17:26:17.547Z,71.85
2022-12-09T17:28:47.460Z,71.30
2022-12-09T17:31:23.790Z,69.28
2022-12-09T17:33:51.352Z,64.00
2022-12-09T17:36:18.908Z,69.03
2022-12-09T17:38:45.866Z,68.38
2022-12-09T17:41:20.471Z,64.30
2022-12-09T17:43:48.346Z,68.43
2022-12-09T17:46:33.873Z,71.90
2022-12-09T17:49:01.606Z,65.78
2022-12-09T17:51:35.401Z,66.20
2022-12-09T17:54:28.483Z,66.15
2022-12-09T18:00:16.625Z,68.28
2022-12-09T18:03:17.830Z,76.65
2022-12-09T18:05:48.923Z,76.75
2022-12-09T18:08:15.563Z,86.00
2022-12-09T18:10:44.204Z,85.38
2022-12-09T18:13:13.688Z,86.30
2022-12-09T18:15:40.285Z,79.00
2022-12-09T18:18:06.886Z,68.32
2022-12-09T18:20:33.868Z,65.90
2022-12-09T18:23:00.373Z,63.17
2022-12-09T18:25:27.042Z,64.00
2022-12-09T18:27:57.240Z,89.47
2022-12-09T18:33:40.654Z,87.85
2022-12-09T18:36:24.524Z,87.28
2022-12-09T18:39:05.496Z,86.20
2022-12-09T18:41:35.437Z,85.85
2022-12-09T18:47:56.134Z,83.30
2022-12-09T18:50:54.257Z,83.88
2022-12-09T18:53:40.932Z,95.05
2022-12-09T18:56:39.755Z,92.55
2022-12-09T18:59:34.194Z,100.00
2022-12-09T19:02:49.546Z,107.30
2022-12-09T21:24:19.982Z,71.13
2022-12-09T21:26:49.810Z,68.13
2022-12-09T21:29:38.487Z,66.05
2022-12-09T21:32:09.287Z,62.35
2022-12-09T21:34:48.872Z,68.03
2022-12-09T21:40:12.206Z,62.78
2022-12-09T21:45:33.474Z,65.72
2022-12-09T21:48:07.775Z,65.55
2022-12-09T21:51:01.340Z,64.47
2022-12-09T21:53:46.780Z,71.82
2022-12-09T21:56:28.572Z,70.82
2022-12-09T21:59:00.497Z,62.83
2022-12-09T22:04:34.140Z,62.95
2022-12-09T22:09:45.761Z,66.00
2022-12-09T22:12:17.335Z,75.13
2022-12-09T22:14:56.686Z,74.32
2022-12-09T22:17:25.065Z,71.13
2022-12-09T22:20:33.396Z,82.32
2022-12-09T22:22:44.300Z,80.40
2022-12-09T22:25:27.963Z,83.10
2022-12-09T22:28:03.528Z,94.85
2022-12-09T22:30:52.067Z,91.45
2022-12-09T22:33:45.364Z,90.80
2022-12-09T22:36:15.269Z,96.60
2022-12-09T22:38:45.929Z,94.03
2022-12-09T22:41:20.887Z,80.82
2022-12-09T22:43:57.410Z,87.65
2022-12-09T22:55:09.502Z,87.13
2022-12-09T22:57:40.675Z,90.63
2022-12-09T23:00:28.854Z,85.13
2022-12-09T23:03:03.337Z,90.00
2022-12-09T23:05:35.066Z,87.50
2022-12-09T23:08:02.326Z,89.10
2022-12-09T23:10:35.252Z,92.05
2022-12-09T23:13:05.919Z,85.22
2022-12-09T23:15:42.729Z,85.43
2022-12-09T23:18:10.122Z,95.35
2022-12-09T23:20:39.429Z,88.80
2022-12-09T23:23:06.412Z,89.68
2022-12-09T23:25:37.199Z,84.63
2022-12-09T23:28:04.825Z,94.10
2022-12-09T23:30:34.163Z,82.65
2022-12-09T23:33:01.037Z,90.45
2022-12-09T23:35:33.210Z,96.60
2022-12-09T23:38:05.814Z,97.22
2022-12-09T23:40:59.420Z,89.80
2022-12-09T23:46:23.878Z,85.38
2022-12-09T23:49:19.583Z,89.18
2022-12-09T23:51:46.771Z,88.82
2022-12-09T23:54:16.845Z,87.65
2022-12-09T23:56:56.289Z,80.07
2022-12-09T23:59:23.776Z,87.50
